Terminal Aerodrome Forecast
Issued by NWS

Home | Current Version | Previous Version | Text Only | Print | Product List | Glossary On
Versions: 1 2 3 4 5 6 7 8 9 10 11 12 13 14 15 16 17
000
FTUS45 KABQ 010300 AAA
TAFAEG
TAF AMD
KAEG 010304Z 0103/0124 VRB03KT P6SM SCT002 SCT025
     FM010400 33006KT P6SM SCT002 BKN015
      TEMPO 0104/0108 1SM BR BKN004
     FM010800 32005KT 4SM BR BKN005
      TEMPO 0108/0112 3/4SM BR BKN002
     FM011800 34006KT P6SM SCT030=

USA.gov is the U.S. government's official web portal to all federal, state and local government web resources and services.